Time;durP1;ratioP1;P1;durP2;ratioP2;P2;SDS_P1;SDS_P2;PMS_P1;PMS_P2;Temp;Humidity;BMP_temperature;BMP_pressure;BME280_temperature;BME280_humidity;BME280_pressure;Samples;Min_cycle;Max_cycle;Signal;HPM_P1;HPM_P2
2023/02/06 00:01:19;;;;;;;14.88;4.82;;;3.30;99.90;;;2.43;100.00;103760.31;4185794;28;20021;-76
2023/02/06 00:03:20;;;;;;;15.95;6.50;;;3.30;99.90;;;2.32;100.00;103749.25;4185750;28;20108;-76
2023/02/06 00:05:21;;;;;;;16.90;5.38;;;3.40;99.90;;;2.35;100.00;103757.00;4187024;28;20510;-75
2023/02/06 00:07:22;;;;;;;15.60;5.53;;;3.30;99.90;;;2.41;100.00;103764.69;4185782;28;20036;-76
2023/02/06 00:09:22;;;;;;;18.85;5.05;;;3.40;99.90;;;2.30;100.00;103762.28;4169129;28;20025;-76
2023/02/06 00:11:24;;;;;;;23.45;5.85;;;3.40;99.90;;;2.38;100.00;103772.56;4185311;28;20045;-76
2023/02/06 00:13:25;;;;;;;12.65;4.72;;;3.30;99.90;;;2.19;100.00;103753.81;4185748;28;20025;-76
2023/02/06 00:15:26;;;;;;;15.48;6.68;;;3.30;99.90;;;2.18;100.00;103773.81;4185443;28;20056;-76
2023/02/06 00:17:27;;;;;;;15.90;6.30;;;3.20;99.90;;;2.19;100.00;103772.91;4186804;28;20388;-76
2023/02/06 00:19:28;;;;;;;20.40;5.90;;;3.20;99.90;;;2.14;100.00;103761.75;4185289;28;20028;-75
2023/02/06 00:21:30;;;;;;;16.48;5.43;;;3.20;99.90;;;2.10;100.00;103754.88;4185492;28;20024;-76
2023/02/06 00:23:31;;;;;;;25.65;6.03;;;3.10;99.90;;;2.05;100.00;103735.88;4186669;28;20484;-76
2023/02/06 00:25:32;;;;;;;19.25;5.85;;;3.10;99.90;;;2.16;100.00;103748.69;4185690;28;20025;-76
2023/02/06 00:27:33;;;;;;;20.63;6.38;;;3.10;99.90;;;2.12;100.00;103742.66;4185358;28;20040;-76
2023/02/06 00:29:34;;;;;;;17.58;6.72;;;3.20;99.90;;;2.07;100.00;103747.09;4185303;28;20025;-76
2023/02/06 00:31:34;;;;;;;20.73;6.65;;;3.10;99.90;;;2.10;100.00;103741.84;4168738;28;20056;-76
2023/02/06 00:33:37;;;;;;;18.48;6.20;;;3.10;99.90;;;1.97;100.00;103736.91;4186530;28;20060;-76
2023/02/06 00:35:38;;;;;;;10.65;5.65;;;3.00;99.90;;;1.86;100.00;103726.66;4186246;28;20029;-75
2023/02/06 00:37:39;;;;;;;16.05;5.30;;;3.00;99.90;;;2.01;100.00;103736.81;4185290;28;20079;-75
2023/02/06 00:39:39;;;;;;;19.45;6.15;;;3.00;99.90;;;2.01;100.00;103744.63;4185289;28;20055;-76
2023/02/06 00:41:40;;;;;;;16.15;7.07;;;3.00;99.90;;;1.97;100.00;103731.69;4186589;28;20032;-76
2023/02/06 00:43:42;;;;;;;20.60;6.03;;;3.00;99.90;;;1.90;100.00;103724.88;4168988;28;20032;-76
2023/02/06 00:45:43;;;;;;;14.80;5.25;;;2.90;99.90;;;1.87;100.00;103735.34;4168632;28;20028;-76
2023/02/06 00:47:44;;;;;;;20.50;6.88;;;2.90;99.90;;;1.83;100.00;103736.25;4185331;28;20107;-76
2023/02/06 00:49:44;;;;;;;21.10;5.93;;;2.80;99.90;;;1.86;100.00;103734.47;4185082;28;20028;-76
2023/02/06 00:51:45;;;;;;;18.63;6.65;;;2.90;99.90;;;1.82;100.00;103724.16;4184825;28;20028;-76
2023/02/06 00:53:46;;;;;;;15.48;5.80;;;2.80;99.90;;;1.77;100.00;103724.22;4186285;28;20033;-76
2023/02/06 00:55:47;;;;;;;20.10;6.93;;;2.80;99.90;;;1.59;100.00;103711.53;4186755;28;20032;-76
2023/02/06 00:57:48;;;;;;;19.88;5.88;;;2.70;99.90;;;1.52;100.00;103699.53;4184683;28;20025;-76
2023/02/06 00:59:49;;;;;;;19.52;6.38;;;2.70;99.90;;;1.67;100.00;103715.72;4184707;28;20025;-75
2023/02/06 01:01:50;;;;;;;18.80;6.45;;;2.70;99.90;;;1.61;100.00;103712.38;4186187;28;20033;-76
2023/02/06 01:03:52;;;;;;;18.75;6.82;;;2.70;99.90;;;1.56;100.00;103714.19;4186081;28;20112;-76
2023/02/06 01:05:53;;;;;;;17.80;7.22;;;2.60;99.90;;;1.42;100.00;103703.16;4184890;28;20207;-76
2023/02/06 01:07:54;;;;;;;20.77;8.45;;;2.50;99.90;;;1.42;100.00;103717.03;4186025;28;20033;-76
2023/02/06 01:09:55;;;;;;;19.95;7.82;;;2.50;99.90;;;1.33;100.00;103705.91;4184767;28;20403;-76
2023/02/06 01:11:56;;;;;;;19.83;6.60;;;2.40;99.90;;;1.18;100.00;103700.94;4184327;28;20107;-76
2023/02/06 01:13:57;;;;;;;22.17;7.05;;;2.30;99.90;;;1.16;100.00;103702.72;4184597;28;20504;-76
2023/02/06 01:15:58;;;;;;;24.13;7.18;;;2.30;99.90;;;1.17;100.00;103704.41;4168011;28;20017;-76
2023/02/06 01:18:00;;;;;;;19.33;6.80;;;2.20;99.90;;;1.20;100.00;103704.38;4201162;28;20377;-76
2023/02/06 01:20:01;;;;;;;19.38;7.53;;;2.20;99.90;;;1.10;100.00;103691.53;4185009;28;20575;-76
2023/02/06 01:22:02;;;;;;;21.85;7.70;;;2.20;99.90;;;1.13;100.00;103709.66;4184583;28;20029;-76
2023/02/06 01:24:03;;;;;;;19.63;6.20;;;2.20;99.90;;;1.10;100.00;103698.47;4185723;28;20037;-75
2023/02/06 01:26:07;;;;;;;16.95;6.30;;;2.10;99.90;;;1.15;100.00;103707.06;4185516;28;20456;-76
2023/02/06 01:28:08;;;;;;;13.50;4.70;;;2.10;99.90;;;1.00;100.00;103687.34;4185810;28;20058;-76
2023/02/06 01:30:10;;;;;;;20.98;6.47;;;2.10;99.90;;;1.04;100.00;103707.22;4184308;28;20075;-76
2023/02/06 01:32:11;;;;;;;22.50;7.13;;;2.10;99.90;;;1.02;100.00;103703.78;4167930;28;20038;-76
2023/02/06 01:34:12;;;;;;;22.45;6.07;;;2.00;99.90;;;0.94;100.00;103703.03;4185842;28;20036;-76
2023/02/06 01:36:14;;;;;;;19.90;6.63;;;2.00;99.90;;;0.90;100.00;103695.28;4167820;28;20034;-76
2023/02/06 01:38:14;;;;;;;21.88;7.07;;;1.90;99.90;;;0.93;100.00;103697.84;4185554;28;20025;-76
2023/02/06 01:40:16;;;;;;;14.43;5.90;;;2.00;99.90;;;0.86;100.00;103694.50;4184295;28;20032;-76
2023/02/06 01:42:17;;;;;;;17.58;6.05;;;1.90;99.90;;;0.80;100.00;103704.97;4167756;28;20056;-76
2023/02/06 01:44:23;;;;;;;16.77;5.93;;;1.90;99.90;;;0.70;100.00;103697.31;4185537;28;20037;-76
2023/02/06 01:46:24;;;;;;;19.95;5.90;;;1.80;99.90;;;0.70;100.00;103705.09;4184507;28;20029;-75
2023/02/06 01:48:32;;;;;;;20.63;6.18;;;1.70;99.90;;;0.79;100.00;103720.56;4216931;28;20035;-76
2023/02/06 01:50:37;;;;;;;18.38;6.18;;;1.80;99.90;;;0.83;100.00;103715.31;4185810;28;20087;-76
2023/02/06 01:52:38;;;;;;;;;;;1.80;99.90;;;0.82;100.00;103715.34;4184552;28;20036;-76
2023/02/06 01:54:40;;;;;;;21.40;6.05;;;1.80;99.90;;;0.82;100.00;103713.59;4217532;28;19916;-76
2023/02/06 01:56:50;;;;;;;21.98;7.22;;;1.90;99.90;;;0.84;100.00;103726.56;4183965;28;20082;-76
2023/02/06 01:58:57;;;;;;;15.70;6.43;;;1.80;99.90;;;0.80;100.00;103715.38;4184427;28;20025;-76
2023/02/06 02:01:00;;;;;;;18.98;6.03;;;1.80;99.90;;;0.78;100.00;103711.91;4184120;28;20036;-76
2023/02/06 02:03:03;;;;;;;20.67;5.82;;;1.80;99.90;;;0.87;100.00;103727.38;4185307;28;20463;-76
2023/02/06 02:05:07;;;;;;;23.15;6.72;;;1.80;99.90;;;0.90;100.00;103716.94;4154452;28;20028;-76
2023/02/06 02:07:21;;;;;;;13.32;5.63;;;1.90;99.90;;;0.91;100.00;103723.00;4200570;28;20506;-76
2023/02/06 02:09:22;;;;;;;18.85;5.90;;;1.90;99.90;;;0.85;100.00;103717.88;4185126;28;20033;-76
2023/02/06 02:11:32;;;;;;;18.65;6.05;;;1.90;99.90;;;0.86;100.00;103715.28;4183633;28;20126;-76
2023/02/06 02:13:33;;;;;;;18.20;7.20;;;1.90;99.90;;;0.82;100.00;103716.19;4184249;28;20043;-76
2023/02/06 02:16:22;;;;;;;24.45;7.30;;;1.80;99.90;;;0.70;100.00;103713.75;4185084;28;20550;-76
2023/02/06 02:18:46;;;;;;;19.80;6.72;;;1.80;99.90;;;0.70;100.00;103718.09;4134304;28;20113;-76
2023/02/06 02:21:17;;;;;;;19.08;7.47;;;1.80;99.90;;;0.79;100.00;103723.16;4118188;28;20042;-76
2023/02/06 02:24:15;;;;;;;22.17;9.02;;;1.80;99.90;;;0.73;100.00;103723.25;4145188;28;20036;-76
2023/02/06 02:26:59;;;;;;;24.20;7.20;;;1.80;99.90;;;0.83;100.00;103717.94;4154136;28;20056;-76
2023/02/06 02:29:34;;;;;;;27.45;6.55;;;1.80;99.90;;;0.62;100.00;103714.75;4185279;28;20060;-76
2023/02/06 02:31:50;;;;;;;28.05;9.32;;;1.70;99.90;;;0.74;100.00;103724.97;4184061;28;20111;-76
2023/02/06 02:34:38;;;;;;;19.88;6.80;;;1.80;99.90;;;0.72;100.00;103717.19;4185012;28;20029;-76
2023/02/06 02:36:50;;;;;;;20.55;7.38;;;1.70;99.90;;;0.71;100.00;103712.88;4184128;28;20029;-76
2023/02/06 02:39:15;;;;;;;20.50;5.78;;;1.70;99.90;;;0.67;100.00;103703.41;4183906;28;20025;-76
2023/02/06 02:41:32;;;;;;;13.57;5.93;;;1.70;99.90;;;0.70;100.00;103711.16;4185091;28;20036;-76
2023/02/06 02:43:37;;;;;;;18.63;6.32;;;1.70;99.90;;;0.67;100.00;103707.75;4185148;28;20045;-76
2023/02/06 02:46:01;;;;;;;23.77;7.15;;;1.70;99.90;;;0.75;100.00;103705.88;4183350;28;20032;-76
2023/02/06 02:48:15;;;;;;;23.73;6.57;;;1.70;99.90;;;0.59;100.00;103694.88;4183782;28;20075;-76
2023/02/06 02:50:18;;;;;;;15.00;5.68;;;1.70;99.90;;;0.64;100.00;103702.59;4183706;28;20507;-76
2023/02/06 02:52:19;;;;;;;19.02;6.40;;;1.70;99.90;;;0.57;100.00;103700.97;4183686;28;20040;-76
2023/02/06 02:54:20;;;;;;;25.83;6.32;;;1.70;99.90;;;0.71;100.00;103712.88;4183710;28;20056;-76
2023/02/06 02:56:23;;;;;;;15.30;6.50;;;1.70;99.90;;;0.68;100.00;103714.66;4184986;28;20021;-76
2023/02/06 02:58:32;;;;;;;21.25;5.72;;;1.70;99.90;;;0.64;100.00;103700.84;4184723;28;20082;-76
2023/02/06 03:00:43;;;;;;;20.27;5.40;;;1.70;99.90;;;0.69;100.00;103695.63;4185074;28;20080;-76
2023/02/06 03:02:47;;;;;;;20.98;6.43;;;1.70;99.90;;;0.72;100.00;103693.81;4186744;28;20036;-75
2023/02/06 03:05:04;;;;;;;23.02;5.90;;;1.70;99.90;;;0.75;100.00;103692.91;4186771;28;20084;-76
2023/02/06 03:07:38;;;;;;;22.67;6.00;;;1.70;99.90;;;0.75;100.00;103688.56;4186715;28;20041;-76
2023/02/06 03:10:13;;;;;;;18.27;5.57;;;1.80;99.90;;;0.80;100.00;103696.31;4186682;28;20027;-76
2023/02/06 03:12:32;;;;;;;;;;;1.80;99.90;;;0.85;100.00;103708.34;4188767;28;20033;-76
2023/02/06 03:15:09;;;;;;;18.63;5.38;;;1.90;99.90;;;0.83;100.00;103704.94;4220259;28;19956;-76
2023/02/06 03:17:18;;;;;;;21.95;5.97;;;1.90;99.90;;;0.82;100.00;103703.19;4165192;28;20048;-76
2023/02/06 03:19:44;;;;;;;25.48;5.57;;;1.90;99.90;;;0.82;100.00;103687.63;4186425;28;20032;-76
2023/02/06 03:21:47;;;;;;;22.08;6.43;;;1.90;99.90;;;0.84;100.00;103691.03;4186639;28;20032;-76
2023/02/06 03:23:53;;;;;;;16.15;5.18;;;1.90;99.90;;;0.87;100.00;103691.00;4186569;28;20028;-76
2023/02/06 03:25:59;;;;;;;19.75;6.32;;;1.90;99.90;;;0.75;100.00;103683.38;4169855;28;20412;-76
2023/02/06 03:28:03;;;;;;;20.95;6.53;;;1.90;99.90;;;0.81;100.00;103693.69;4186499;28;20397;-76
2023/02/06 03:30:07;;;;;;;17.30;4.97;;;1.80;99.90;;;0.80;100.00;103678.13;4169941;28;20025;-76
2023/02/06 03:32:30;;;;;;;26.55;5.93;;;1.80;99.90;;;0.74;100.00;103684.28;4186663;28;20017;-75
2023/02/06 03:34:45;;;;;;;19.73;5.40;;;1.80;99.90;;;0.84;100.00;103675.44;4186486;28;20068;-76
2023/02/06 03:36:48;;;;;;;25.08;6.18;;;1.80;99.90;;;0.81;100.00;103675.50;4186037;28;20036;-76
2023/02/06 03:38:51;;;;;;;18.63;5.82;;;1.80;99.90;;;0.82;100.00;103668.56;4169819;28;20053;-75
2023/02/06 03:40:53;;;;;;;25.02;6.50;;;1.80;99.90;;;0.78;100.00;103674.66;4186282;28;20029;-76
2023/02/06 03:42:59;;;;;;;25.88;10.32;;;1.80;99.90;;;0.75;100.00;103670.38;4186228;28;20033;-76
2023/02/06 03:45:15;;;;;;;25.60;8.57;;;1.80;99.90;;;0.79;100.00;103673.81;4185929;28;20025;-76
2023/02/06 03:47:19;;;;;;;25.60;8.02;;;1.80;99.90;;;0.78;100.00;103659.09;4186047;28;20032;-76
2023/02/06 03:49:23;;;;;;;20.60;7.57;;;1.80;99.90;;;0.76;100.00;103666.91;4186097;28;20559;-76
2023/02/06 03:51:34;;;;;;;18.13;5.32;;;1.80;99.90;;;0.78;100.00;103654.75;4186432;28;20424;-76
2023/02/06 03:53:37;;;;;;;16.85;5.75;;;1.80;99.90;;;0.71;100.00;103655.75;4185923;28;20021;-75
2023/02/06 03:55:40;;;;;;;17.27;5.65;;;1.80;99.90;;;0.69;100.00;103660.06;4185930;28;20025;-76
2023/02/06 03:57:47;;;;;;;20.75;5.60;;;1.70;99.90;;;0.65;100.00;103654.97;4186063;28;20437;-75
2023/02/06 03:59:48;;;;;;;20.50;5.03;;;1.70;99.90;;;0.62;100.00;103650.69;4169408;28;20063;-76
2023/02/06 04:02:01;;;;;;;27.90;6.72;;;1.70;99.90;;;0.60;100.00;103655.00;4187291;28;20031;-76
2023/02/06 04:04:03;;;;;;;22.60;6.13;;;1.70;99.90;;;0.58;100.00;103648.97;4186288;28;20412;-75
2023/02/06 04:06:04;;;;;;;29.20;6.20;;;1.70;99.90;;;0.63;100.00;103646.34;4185786;28;20078;-76
2023/02/06 04:08:05;;;;;;;20.23;5.68;;;1.70;99.90;;;0.72;100.00;103654.84;4185887;28;20028;-76
2023/02/06 04:10:07;;;;;;;20.33;4.82;;;1.70;99.90;;;0.76;100.00;103661.72;4185966;28;20025;-75
2023/02/06 04:12:08;;;;;;;19.50;6.97;;;1.70;99.90;;;0.73;100.00;103658.31;4186416;28;20381;-75
2023/02/06 04:14:09;;;;;;;28.27;6.40;;;1.70;99.90;;;0.66;100.00;103665.31;4185691;28;20028;-76
2023/02/06 04:16:10;;;;;;;18.33;5.78;;;1.70;99.90;;;0.59;100.00;103662.84;4185467;28;20017;-75
2023/02/06 04:18:10;;;;;;;28.52;5.13;;;1.60;99.90;;;0.64;100.00;103658.44;4186905;28;20025;-75
2023/02/06 04:20:12;;;;;;;22.20;5.85;;;1.60;99.90;;;0.59;100.00;103658.50;4185659;28;20051;-76
2023/02/06 04:22:14;;;;;;;20.50;5.05;;;1.60;99.90;;;0.50;100.00;103648.25;4185394;28;20044;-75
2023/02/06 04:24:15;;;;;;;21.45;5.30;;;1.60;99.90;;;0.51;100.00;103666.38;4185488;28;20032;-76
2023/02/06 04:26:16;;;;;;;18.88;6.18;;;1.60;99.90;;;0.48;100.00;103662.97;4186779;28;20021;-76
2023/02/06 04:28:17;;;;;;;21.27;5.45;;;1.60;99.90;;;0.45;100.00;103670.78;4186595;28;20021;-76
2023/02/06 04:30:18;;;;;;;20.58;6.00;;;1.50;99.90;;;0.42;100.00;103650.94;4184443;28;20025;-76
2023/02/06 04:32:19;;;;;;;21.45;5.90;;;1.50;99.90;;;0.50;100.00;103674.22;4185074;28;20025;-76
2023/02/06 04:34:20;;;;;;;21.25;6.60;;;1.50;99.90;;;0.55;100.00;103662.00;4183502;28;20032;-76
2023/02/06 04:36:21;;;;;;;19.33;5.47;;;1.60;99.90;;;0.50;100.00;103656.03;4201428;28;20647;-76
2023/02/06 04:38:22;;;;;;;22.13;4.50;;;1.60;99.90;;;0.46;100.00;103659.53;4168297;28;20040;-76
2023/02/06 04:40:23;;;;;;;14.95;5.10;;;1.60;99.90;;;0.50;100.00;103669.88;4213099;28;20016;-76
2023/02/06 04:42:23;;;;;;;20.45;6.20;;;1.60;99.90;;;0.49;100.00;103670.75;4182161;28;20025;-76
2023/02/06 04:44:24;;;;;;;19.85;5.07;;;1.60;99.90;;;0.47;100.00;103662.13;4184724;28;20025;-76
2023/02/06 04:46:26;;;;;;;20.88;5.55;;;1.50;99.90;;;0.58;100.00;103661.97;4186090;28;20063;-76
2023/02/06 04:48:27;;;;;;;26.33;6.10;;;1.60;99.90;;;0.48;100.00;103645.66;4184741;28;20071;-76
2023/02/06 04:50:30;;;;;;;21.48;5.30;;;1.60;99.90;;;0.52;100.00;103643.88;4197270;28;20048;-76
2023/02/06 04:52:31;;;;;;;27.63;5.93;;;1.60;99.90;;;0.56;100.00;103645.56;4184645;28;20089;-76
2023/02/06 04:54:32;;;;;;;22.58;4.57;;;1.60;99.90;;;0.53;100.00;103648.19;4185800;28;20099;-76
2023/02/06 04:56:33;;;;;;;24.30;5.10;;;1.60;99.90;;;0.48;100.00;103656.03;4184555;28;20584;-76
2023/02/06 04:58:34;;;;;;;21.23;5.65;;;1.50;99.90;;;0.46;100.00;103647.41;4184783;28;20040;-76
2023/02/06 05:00:35;;;;;;;15.70;5.35;;;1.50;99.90;;;0.46;100.00;103646.56;4184328;28;20096;-76
2023/02/06 05:02:38;;;;;;;19.52;6.32;;;1.50;99.90;;;0.45;100.00;103642.22;4184520;28;20112;-76
2023/02/06 05:04:39;;;;;;;22.05;6.22;;;1.50;99.90;;;0.40;100.00;103638.84;4184283;28;20114;-76
2023/02/06 05:06:40;;;;;;;26.27;6.00;;;1.50;99.90;;;0.46;100.00;103637.03;4182052;28;20033;-76
2023/02/06 05:08:41;;;;;;;21.15;6.30;;;1.50;99.90;;;0.48;100.00;103649.97;4185581;28;20522;-76
2023/02/06 05:10:42;;;;;;;20.13;6.18;;;1.50;99.90;;;0.53;100.00;103653.41;4184219;28;20044;-76
2023/02/06 05:12:43;;;;;;;18.08;6.63;;;1.50;99.90;;;0.44;100.00;103638.81;4185471;28;20547;-76
2023/02/06 05:14:43;;;;;;;22.92;5.82;;;1.50;99.90;;;0.54;100.00;103642.97;4185173;28;20389;-76
2023/02/06 05:16:44;;;;;;;18.08;5.00;;;1.60;99.90;;;0.42;100.00;103617.16;4167675;28;20032;-76
2023/02/06 05:18:46;;;;;;;26.08;5.78;;;1.50;99.90;;;0.55;100.00;103630.84;4185407;28;20021;-76
2023/02/06 05:20:47;;;;;;;14.75;4.93;;;1.60;99.90;;;0.54;100.00;103635.19;4184212;28;20020;-76
2023/02/06 05:22:47;;;;;;;19.08;5.07;;;1.60;99.90;;;0.50;100.00;103638.72;4168079;28;20021;-76
2023/02/06 05:24:48;;;;;;;24.83;5.68;;;1.50;99.90;;;0.48;100.00;103639.59;4185314;28;20029;-76
2023/02/06 05:26:49;;;;;;;28.50;5.57;;;1.60;99.90;;;0.43;100.00;103638.81;4185529;28;21268;-76
2023/02/06 05:28:50;;;;;;;27.67;5.97;;;1.50;99.90;;;0.43;100.00;103642.25;4184198;28;20025;-76
2023/02/06 05:30:51;;;;;;;20.17;5.68;;;1.50;99.90;;;0.36;100.00;103621.63;4183818;28;20017;-76
2023/02/06 05:32:52;;;;;;;25.50;6.25;;;1.50;99.90;;;0.31;100.00;103625.97;4184151;28;20485;-76
2023/02/06 05:34:53;;;;;;;17.38;5.07;;;1.40;99.90;;;0.33;100.00;103613.88;4184038;28;20032;-76
2023/02/06 05:36:54;;;;;;;20.20;5.75;;;1.40;99.90;;;0.44;100.00;103617.16;4185133;28;20032;-76
2023/02/06 05:38:54;;;;;;;18.02;5.13;;;1.50;99.90;;;0.46;100.00;103630.97;4183905;28;20062;-76
2023/02/06 05:40:55;;;;;;;23.95;5.90;;;1.50;99.90;;;0.44;100.00;103628.41;4185071;28;20032;-76
2023/02/06 05:42:57;;;;;;;18.50;5.22;;;1.50;99.90;;;0.46;100.00;103612.78;4185036;28;20029;-76
2023/02/06 05:44:58;;;;;;;25.98;6.65;;;1.50;99.90;;;0.44;100.00;103622.34;4183693;28;20052;-76
2023/02/06 05:46:58;;;;;;;26.42;5.65;;;1.50;99.90;;;0.37;100.00;103611.19;4184994;28;20473;-76
2023/02/06 05:48:59;;;;;;;16.52;4.72;;;1.50;99.90;;;0.41;100.00;103625.00;4184959;28;20021;-76
2023/02/06 05:51:01;;;;;;;23.58;5.78;;;1.50;99.90;;;0.32;100.00;103619.91;4184967;28;20043;-76
2023/02/06 05:53:02;;;;;;;21.27;4.75;;;1.40;99.90;;;0.21;100.00;103619.22;4184816;28;20403;-76
2023/02/06 05:55:03;;;;;;;17.50;5.65;;;1.40;99.90;;;0.23;100.00;103625.22;4167372;28;20025;-76
2023/02/06 05:57:04;;;;;;;17.10;5.05;;;1.30;99.90;;;0.11;100.00;103607.22;4210448;28;20020;-76
2023/02/06 05:59:04;;;;;;;23.67;5.07;;;1.30;99.90;;;0.09;100.00;103604.63;4184845;28;20195;-76
2023/02/06 06:01:05;;;;;;;29.15;5.53;;;1.30;99.90;;;0.12;100.00;103611.53;4183844;28;20511;-76
2023/02/06 06:03:06;;;;;;;23.23;6.10;;;1.20;99.90;;;0.18;100.00;103624.44;4185153;28;20029;-76
2023/02/06 06:05:07;;;;;;;27.88;4.55;;;1.20;99.90;;;0.15;100.00;103616.69;4184239;28;20032;-76
2023/02/06 06:07:08;;;;;;;32.17;5.70;;;1.20;99.90;;;0.17;100.00;103601.94;4184047;28;20040;-76
2023/02/06 06:09:09;;;;;;;24.15;5.43;;;1.30;99.90;;;0.26;100.00;103615.69;4184098;28;20025;-76
2023/02/06 06:11:10;;;;;;;24.20;5.22;;;1.30;99.90;;;0.25;100.00;103610.47;4184965;28;20397;-76
2023/02/06 06:13:11;;;;;;;26.95;6.57;;;1.30;99.90;;;0.23;100.00;103623.50;4172110;28;20032;-76
2023/02/06 06:15:12;;;;;;;23.23;4.55;;;1.30;99.90;;;0.23;100.00;103622.63;4183700;28;20032;-76
2023/02/06 06:17:14;;;;;;;21.92;4.90;;;1.30;99.90;;;0.07;100.00;103608.97;4184176;28;20053;-76
2023/02/06 06:19:15;;;;;;;19.70;4.65;;;1.20;99.90;;;0.13;100.00;103626.22;4183798;28;20579;-76
2023/02/06 06:21:16;;;;;;;26.50;5.28;;;1.20;99.90;;;0.10;100.00;103624.53;4184243;28;20029;-76
2023/02/06 06:23:17;;;;;;;22.50;4.90;;;1.20;99.90;;;0.15;100.00;103607.16;4185004;28;20116;-76
2023/02/06 06:25:18;;;;;;;26.52;5.40;;;1.20;99.90;;;0.14;100.00;103609.78;4185447;28;20100;-76
2023/02/06 06:27:18;;;;;;;28.85;4.72;;;1.20;99.90;;;0.03;100.00;103607.28;4183844;28;20036;-76
2023/02/06 06:29:19;;;;;;;15.13;4.78;;;1.20;99.90;;;-0.08;100.00;103596.19;4167029;28;20047;-76
2023/02/06 06:31:20;;;;;;;25.20;4.97;;;1.10;99.90;;;0.00;100.00;103599.59;4183163;28;20033;-75
2023/02/06 06:33:21;;;;;;;20.00;5.00;;;1.10;99.90;;;-0.07;100.00;103598.78;4183649;28;20029;-76
2023/02/06 06:35:22;;;;;;;18.63;3.92;;;1.10;99.90;;;-0.09;100.00;103599.69;4186795;28;20025;-76
2023/02/06 06:37:23;;;;;;;27.17;6.50;;;1.10;99.90;;;-0.03;100.00;103623.81;4170379;28;20037;-76
2023/02/06 06:39:24;;;;;;;26.13;7.30;;;1.10;99.90;;;-0.15;100.00;103590.22;4188397;28;20021;-76
2023/02/06 06:41:25;;;;;;;25.17;5.00;;;1.00;99.90;;;-0.16;100.00;103604.09;4187253;28;20025;-76
2023/02/06 06:43:26;;;;;;;15.80;4.03;;;1.00;99.90;;;-0.14;100.00;103615.28;4188151;28;20033;-76
2023/02/06 06:45:27;;;;;;;27.48;4.85;;;1.00;99.90;;;-0.24;100.00;103603.28;4186828;28;20021;-76
2023/02/06 06:47:28;;;;;;;20.73;5.78;;;0.90;99.90;;;-0.23;100.00;103606.75;4188279;28;20032;-76
2023/02/06 06:49:29;;;;;;;13.70;4.60;;;0.90;99.90;;;-0.20;100.00;103601.53;4203494;28;20103;-76
2023/02/06 06:51:30;;;;;;;25.45;6.18;;;0.90;99.90;;;-0.10;100.00;103616.13;4220253;28;20016;-76
2023/02/06 06:53:31;;;;;;;22.67;6.32;;;1.00;99.90;;;-0.05;100.00;103611.72;4184419;28;20396;-77
2023/02/06 06:55:32;;;;;;;28.40;6.05;;;1.00;99.90;;;-0.10;100.00;103603.16;4188158;28;20488;-76
2023/02/06 06:57:33;;;;;;;23.23;5.28;;;1.10;99.90;;;-0.11;100.00;103597.09;4187563;28;20037;-76
2023/02/06 06:59:33;;;;;;;22.80;5.80;;;1.10;99.90;;;-0.13;100.00;103601.47;4187778;28;20048;-76
2023/02/06 07:01:34;;;;;;;21.55;5.25;;;1.10;99.90;;;-0.01;100.00;103609.09;4187745;28;20067;-76
2023/02/06 07:03:35;;;;;;;28.05;5.85;;;1.10;99.90;;;-0.09;100.00;103603.13;4188145;28;20177;-77
2023/02/06 07:05:36;;;;;;;18.98;5.80;;;1.10;99.90;;;-0.04;100.00;103598.75;4188118;28;20032;-76
2023/02/06 07:07:40;;;;;;;22.30;5.22;;;1.10;99.90;;;-0.08;100.00;103594.47;4187863;28;20484;-76
2023/02/06 07:09:41;;;;;;;23.23;6.47;;;1.10;99.90;;;-0.04;100.00;103588.38;4187736;28;20396;-76
2023/02/06 07:11:42;;;;;;;23.30;5.95;;;1.10;99.90;;;0.01;100.00;103616.84;4187715;28;20041;-76
2023/02/06 07:13:44;;;;;;;18.50;5.38;;;1.10;99.90;;;-0.14;100.00;103607.50;4187537;28;20472;-76
2023/02/06 07:15:45;;;;;;;17.88;4.78;;;1.10;99.90;;;-0.10;100.00;103621.31;4187551;28;20078;-76
2023/02/06 07:17:46;;;;;;;20.23;6.75;;;1.00;99.90;;;-0.10;100.00;103618.72;4187074;28;20029;-76
2023/02/06 07:19:50;;;;;;;18.60;5.38;;;1.00;99.90;;;-0.14;100.00;103622.22;4188164;28;20025;-77
2023/02/06 07:21:51;;;;;;;17.35;4.93;;;1.00;99.90;;;-0.25;100.00;103606.78;4187624;28;20029;-78
2023/02/06 07:23:51;;;;;;;33.75;6.90;;;1.00;99.90;;;-0.16;100.00;103604.09;4186509;28;20084;-78
2023/02/06 07:25:52;;;;;;;13.50;5.25;;;1.00;99.90;;;-0.12;100.00;103612.69;4187555;28;20033;-78
2023/02/06 07:27:53;;;;;;;24.08;6.47;;;1.00;99.90;;;-0.01;100.00;103627.25;4186585;28;20027;-78
2023/02/06 07:29:54;;;;;;;21.10;5.05;;;1.10;99.90;;;0.05;100.00;103636.69;4170086;28;20034;-78
2023/02/06 07:31:55;;;;;;;34.10;6.85;;;1.10;99.90;;;0.12;100.00;103634.91;4187554;28;20048;-78
2023/02/06 07:33:56;;;;;;;25.23;5.53;;;1.10;99.90;;;0.06;100.00;103624.59;4186225;28;20029;-78
2023/02/06 07:35:58;;;;;;;25.15;5.97;;;1.20;99.90;;;0.05;100.00;103638.44;4188043;28;20528;-78
2023/02/06 07:37:59;;;;;;;20.70;5.63;;;1.10;99.90;;;0.02;100.00;103639.34;4187662;28;20033;-78
2023/02/06 07:40:00;;;;;;;29.67;7.63;;;1.10;99.90;;;-0.10;100.00;103609.19;4202930;28;20084;-78
2023/02/06 07:42:01;;;;;;;18.98;6.32;;;1.10;99.90;;;-0.03;100.00;103610.00;4187264;28;20508;-78
2023/02/06 07:44:01;;;;;;;22.60;6.13;;;1.20;99.90;;;-0.02;100.00;103609.97;4187722;28;20036;-78
2023/02/06 07:46:04;;;;;;;23.70;6.00;;;1.20;99.90;;;-0.12;100.00;103605.75;4185126;28;20037;-78
2023/02/06 07:48:05;;;;;;;19.50;6.47;;;1.10;99.90;;;-0.05;100.00;103622.09;4186066;28;20029;-78
2023/02/06 07:50:07;;;;;;;21.48;5.85;;;1.10;99.90;;;-0.13;100.00;103604.03;4186837;28;20502;-78
2023/02/06 07:52:08;;;;;;;22.75;6.32;;;1.00;99.90;;;-0.08;100.00;103607.44;4184502;28;20017;-78
2023/02/06 07:54:10;;;;;;;25.30;5.95;;;1.10;99.90;;;0.06;100.00;103619.41;4187207;28;20033;-78
2023/02/06 07:56:17;;;;;;;21.65;5.93;;;1.10;99.90;;;0.12;100.00;103617.56;4202459;28;20023;-78
2023/02/06 07:58:18;;;;;;;21.08;5.32;;;1.20;99.90;;;-0.05;100.00;103597.03;4187125;28;20025;-78
2023/02/06 08:00:19;;;;;;;27.52;5.80;;;1.20;99.90;;;0.04;100.00;103595.19;4202054;28;20381;-78
2023/02/06 08:02:20;;;;;;;25.92;5.38;;;1.20;99.90;;;0.15;100.00;103609.75;4185948;28;20029;-78
2023/02/06 08:04:21;;;;;;;24.98;5.60;;;1.20;99.90;;;0.05;100.00;103592.59;4186979;28;20028;-78
2023/02/06 08:06:23;;;;;;;24.58;6.05;;;1.20;99.90;;;0.14;100.00;103602.00;4186960;28;20025;-78
2023/02/06 08:08:25;;;;;;;21.58;5.72;;;1.30;99.90;;;0.25;100.00;103608.75;4185892;28;20032;-78
2023/02/06 08:10:26;;;;;;;19.63;5.43;;;1.30;99.90;;;0.19;100.00;103595.00;4168960;28;20037;-78
2023/02/06 08:12:29;;;;;;;25.63;5.85;;;1.30;99.90;;;0.29;100.00;103613.03;4179312;28;20028;-78
2023/02/06 08:14:30;;;;;;;21.92;5.63;;;1.30;99.90;;;0.36;100.00;103613.81;4188119;28;20528;-77
2023/02/06 08:16:31;;;;;;;27.63;6.53;;;1.40;99.90;;;0.39;100.00;103605.97;4187073;28;20021;-78
2023/02/06 08:18:32;;;;;;;22.30;7.18;;;1.50;99.90;;;0.53;100.00;103606.66;4185754;28;20503;-78
2023/02/06 08:20:33;;;;;;;27.58;6.47;;;1.50;99.90;;;0.50;100.00;103610.16;4186275;28;20033;-78
2023/02/06 08:22:34;;;;;;;22.30;5.75;;;1.60;99.90;;;0.52;100.00;103594.53;4201718;28;20126;-78
2023/02/06 08:24:35;;;;;;;30.50;7.18;;;1.60;99.90;;;0.54;100.00;103587.56;4166308;28;20021;-78
2023/02/06 08:26:37;;;;;;;26.52;6.28;;;1.60;99.90;;;0.59;100.00;103575.41;4182615;28;20424;-78
2023/02/06 08:28:38;;;;;;;21.13;6.20;;;1.70;99.90;;;0.74;100.00;103602.88;4186262;28;20025;-78
2023/02/06 08:30:39;;;;;;;21.85;6.30;;;1.70;99.90;;;0.77;100.00;103585.50;4184888;28;20020;-78
2023/02/06 08:32:40;;;;;;;28.40;6.88;;;1.80;99.90;;;0.80;100.00;103590.66;4185969;28;20025;-78
2023/02/06 08:34:41;;;;;;;23.35;6.43;;;1.90;99.90;;;0.82;100.00;103582.81;4186194;28;20135;-78
2023/02/06 08:36:42;;;;;;;30.80;6.47;;;1.90;99.90;;;0.90;100.00;103600.00;4186132;28;20377;-78